createdAt,value
2022-08-05T00:00:53.607Z,40.07
2022-08-05T00:03:20.241Z,40.01
2022-08-05T00:06:04.909Z,40.52
2022-08-05T00:08:34.773Z,40.59
2022-08-05T00:11:04.481Z,40.41
2022-08-05T00:13:52.925Z,40.56
2022-08-05T00:16:35.437Z,40.28
2022-08-05T00:19:04.401Z,40.92
2022-08-05T00:21:30.963Z,40.61
2022-08-05T00:24:09.905Z,40.93
2022-08-05T00:26:38.700Z,41.09
2022-08-05T00:29:05.294Z,41.31
2022-08-05T00:31:53.349Z,41.05
2022-08-05T00:34:56.407Z,41.29
2022-08-05T00:37:09.721Z,41.33
2022-08-05T00:39:44.077Z,41.61
2022-08-05T00:42:32.658Z,42.60
2022-08-05T00:45:00.394Z,41.83
2022-08-05T00:47:31.728Z,42.00
2022-08-05T00:50:14.010Z,42.00
2022-08-05T00:52:41.823Z,42.04
2022-08-05T00:55:12.138Z,41.79
2022-08-05T00:57:58.812Z,41.98
2022-08-05T01:00:26.184Z,42.11
2022-08-05T01:02:53.021Z,42.48
2022-08-05T01:05:19.985Z,42.42
2022-08-05T01:08:29.779Z,42.57
2022-08-05T01:11:02.778Z,43.68
2022-08-05T01:13:57.588Z,43.94
2022-08-05T01:16:38.423Z,44.51
2022-08-05T01:19:46.225Z,44.24
2022-08-05T01:22:40.340Z,44.99
2022-08-05T01:25:41.558Z,44.82
2022-08-05T01:28:17.179Z,43.44
2022-08-05T01:30:53.905Z,44.66
2022-08-05T01:33:35.396Z,43.92
2022-08-05T01:36:13.198Z,44.89
2022-08-05T01:38:45.660Z,43.91
2022-08-05T01:41:18.390Z,44.63
2022-08-05T01:43:50.844Z,43.94
2022-08-05T01:46:42.466Z,44.52
2022-08-05T01:49:23.181Z,43.87
2022-08-05T01:51:56.135Z,44.11
2022-08-05T01:54:29.175Z,44.40
2022-08-05T01:58:10.638Z,44.19
2022-08-05T01:59:48.363Z,44.48
2022-08-05T02:02:16.670Z,44.02
2022-08-05T02:04:49.653Z,44.43
2022-08-05T02:07:21.663Z,44.09
2022-08-05T02:09:50.058Z,44.56
2022-08-05T02:12:33.114Z,45.63
2022-08-05T02:15:04.311Z,45.76
2022-08-05T02:18:32.691Z,46.39
2022-08-05T02:20:30.671Z,45.24
2022-08-05T02:23:09.116Z,45.83
2022-08-05T02:25:49.104Z,45.00
2022-08-05T02:28:26.390Z,45.08
2022-08-05T02:31:00.289Z,46.20
2022-08-05T02:33:35.903Z,45.40
2022-08-05T02:36:10.322Z,45.59
2022-08-05T02:38:44.442Z,45.54
2022-08-05T02:41:22.760Z,45.51
2022-08-05T02:44:06.404Z,45.82
2022-08-05T02:46:53.721Z,45.98
2022-08-05T02:49:35.810Z,45.79
2022-08-05T02:52:09.184Z,45.90
2022-08-05T02:54:37.637Z,45.68
2022-08-05T02:58:12.349Z,45.78
2022-08-05T02:59:59.350Z,45.80
2022-08-05T03:02:34.330Z,47.22
2022-08-05T03:05:01.938Z,45.86
2022-08-05T03:07:56.568Z,45.87
2022-08-05T03:10:24.454Z,45.65
2022-08-05T03:12:52.776Z,45.83
2022-08-05T03:15:20.752Z,45.84
2022-08-05T03:17:47.266Z,46.00
2022-08-05T03:20:14.161Z,45.75
2022-08-05T03:22:44.353Z,45.88
2022-08-05T03:25:32.530Z,45.79
2022-08-05T03:28:08.200Z,45.73
2022-08-05T03:30:36.051Z,45.69
2022-08-05T03:33:04.308Z,45.51
2022-08-05T03:35:33.601Z,45.81
2022-08-05T03:38:01.039Z,45.43
2022-08-05T03:40:32.468Z,45.77
2022-08-05T03:43:01.374Z,45.78
2022-08-05T03:45:57.109Z,46.16
2022-08-05T03:48:24.111Z,46.18
2022-08-05T03:50:59.105Z,46.65
2022-08-05T03:55:53.147Z,47.24
2022-08-05T03:56:47.698Z,46.01
2022-08-05T03:59:46.480Z,47.01
2022-08-05T04:02:17.501Z,46.33
2022-08-05T04:05:02.750Z,45.69
2022-08-05T04:07:30.848Z,45.80
2022-08-05T04:10:03.093Z,46.19
2022-08-05T04:12:29.933Z,46.12
2022-08-05T04:14:59.269Z,46.42
2022-08-05T04:17:55.683Z,46.52
2022-08-05T04:20:24.293Z,47.66
2022-08-05T04:22:50.916Z,46.80
2022-08-05T04:25:17.763Z,46.79
2022-08-05T04:27:56.810Z,46.60
2022-08-05T04:30:26.408Z,46.68
2022-08-05T04:32:53.272Z,46.88
2022-08-05T04:35:20.192Z,46.74
2022-08-05T04:38:01.156Z,47.06
2022-08-05T04:40:32.809Z,47.20
2022-08-05T04:42:59.334Z,47.53
2022-08-05T04:45:47.890Z,47.15
2022-08-05T04:48:18.708Z,47.52
2022-08-05T04:51:02.975Z,47.54
2022-08-05T04:53:36.639Z,47.47
2022-08-05T04:56:32.306Z,48.26
2022-08-05T04:58:54.121Z,47.93
2022-08-05T05:01:33.809Z,47.78
2022-08-05T05:04:07.625Z,48.12
2022-08-05T05:06:36.686Z,47.94
2022-08-05T05:09:14.194Z,48.20
2022-08-05T05:11:53.244Z,47.88
2022-08-05T05:14:27.983Z,48.17
2022-08-05T05:17:01.969Z,48.56
2022-08-05T05:19:36.428Z,48.00
2022-08-05T05:22:23.446Z,47.79
2022-08-05T05:24:58.536Z,47.53
2022-08-05T05:27:44.712Z,47.86
2022-08-05T05:30:29.077Z,47.31
2022-08-05T05:33:03.776Z,47.28
2022-08-05T05:35:43.194Z,47.40
2022-08-05T05:38:12.819Z,47.28
2022-08-05T05:40:47.956Z,47.37
2022-08-05T05:43:28.078Z,46.81
2022-08-05T05:46:03.564Z,46.78
2022-08-05T05:48:32.225Z,46.94
2022-08-05T05:51:14.784Z,46.43
2022-08-05T05:53:54.579Z,46.25
2022-08-05T05:56:31.548Z,45.98
2022-08-05T05:59:06.553Z,45.90
2022-08-05T06:01:37.864Z,45.89
2022-08-05T06:04:14.343Z,45.86
2022-08-05T06:06:46.619Z,45.27
2022-08-05T06:09:18.203Z,45.37
2022-08-05T06:11:59.725Z,45.20
2022-08-05T06:14:33.329Z,44.64
2022-08-05T06:17:21.603Z,44.25
2022-08-05T06:19:57.190Z,43.53
2022-08-05T06:22:33.598Z,43.42
2022-08-05T06:25:59.040Z,42.79
2022-08-05T06:28:12.820Z,42.53
2022-08-05T06:30:35.365Z,41.69
2022-08-05T06:33:02.189Z,41.41
2022-08-05T06:36:08.093Z,41.24
2022-08-05T06:38:16.129Z,40.85
2022-08-05T06:40:44.634Z,40.31
2022-08-05T06:43:59.826Z,40.58
2022-08-05T06:46:04.147Z,40.00
2022-08-05T06:48:53.040Z,39.81
2022-08-05T06:51:25.325Z,39.57
2022-08-05T06:53:58.024Z,39.04
2022-08-05T06:56:26.656Z,39.17
2022-08-05T06:58:53.974Z,39.07
2022-08-05T07:01:21.243Z,39.17
2022-08-05T07:03:49.356Z,38.67
2022-08-05T07:06:16.292Z,38.56
2022-08-05T07:08:48.066Z,38.33
2022-08-05T07:11:22.220Z,38.25
2022-08-05T07:13:58.570Z,38.33
2022-08-05T07:18:00.303Z,38.15
2022-08-05T07:19:44.352Z,37.60
2022-08-05T07:22:02.740Z,38.14
2022-08-05T07:24:29.938Z,37.64
2022-08-05T07:26:56.637Z,37.41
2022-08-05T07:30:22.833Z,37.18
2022-08-05T07:32:10.450Z,36.93
2022-08-05T07:34:42.014Z,36.53
2022-08-05T07:37:11.596Z,36.28
2022-08-05T07:40:27.110Z,35.53
2022-08-05T07:42:33.638Z,35.46
2022-08-05T07:45:01.178Z,35.35
2022-08-05T07:47:27.706Z,35.12
2022-08-05T07:50:09.501Z,35.21
2022-08-05T07:52:41.055Z,35.10
2022-08-05T07:55:15.707Z,35.22
2022-08-05T07:58:02.086Z,34.75
2022-08-05T08:00:29.916Z,34.93
2022-08-05T08:03:13.609Z,34.99
2022-08-05T08:05:49.416Z,35.15
2022-08-05T08:08:19.829Z,35.02
2022-08-05T08:10:49.011Z,34.99
2022-08-05T08:13:22.157Z,35.02
2022-08-05T08:16:49.648Z,34.66
2022-08-05T08:18:43.321Z,35.04
2022-08-05T08:21:17.664Z,35.04
2022-08-05T08:24:02.684Z,35.39
2022-08-05T08:26:31.276Z,35.67
2022-08-05T08:29:21.540Z,35.05
2022-08-05T08:31:46.617Z,35.37
2022-08-05T08:34:15.378Z,35.29
2022-08-05T08:36:47.617Z,35.44
2022-08-05T08:39:21.629Z,35.62
2022-08-05T08:41:52.275Z,35.60
2022-08-05T08:45:22.447Z,35.73
2022-08-05T08:47:21.853Z,34.57
2022-08-05T08:50:07.691Z,34.62
2022-08-05T08:52:39.268Z,34.65
2022-08-05T08:55:13.456Z,34.19
2022-08-05T08:57:58.414Z,33.78
2022-08-05T09:00:25.604Z,33.95
2022-08-05T09:02:53.424Z,33.95
2022-08-05T09:05:38.560Z,34.07
2022-08-05T09:08:07.267Z,34.05
2022-08-05T09:10:36.567Z,34.46
2022-08-05T09:13:08.084Z,34.13
2022-08-05T09:15:36.998Z,34.23
2022-08-05T09:18:07.349Z,33.97
2022-08-05T09:20:38.569Z,34.03
2022-08-05T09:23:09.455Z,34.42
2022-08-05T09:26:00.898Z,34.65
2022-08-05T09:28:32.125Z,34.41
2022-08-05T09:31:03.642Z,34.43
2022-08-05T09:33:59.207Z,34.39
2022-08-05T09:36:45.770Z,34.49
2022-08-05T09:39:22.475Z,33.74
2022-08-05T09:42:04.681Z,33.78
2022-08-05T09:44:39.971Z,34.11
2022-08-05T09:47:17.677Z,33.80
2022-08-05T09:50:00.669Z,33.70
2022-08-05T09:52:33.073Z,33.25
2022-08-05T09:55:57.384Z,33.49
2022-08-05T09:57:54.360Z,33.49
2022-08-05T10:00:22.474Z,33.33
2022-08-05T10:02:53.154Z,33.47
2022-08-05T10:05:32.693Z,32.99
2022-08-05T10:08:36.831Z,32.93
2022-08-05T10:10:54.503Z,33.20
2022-08-05T10:13:45.671Z,32.45
2022-08-05T10:16:41.712Z,33.06
2022-08-05T10:19:23.804Z,33.34
2022-08-05T10:22:09.053Z,32.60
2022-08-05T10:24:42.458Z,32.71
2022-08-05T10:27:13.154Z,32.08
2022-08-05T10:30:41.247Z,32.69
2022-08-05T10:32:59.619Z,32.17
2022-08-05T10:35:19.417Z,32.01
2022-08-05T10:37:47.568Z,32.14
2022-08-05T10:40:31.796Z,31.21
2022-08-05T10:43:07.629Z,31.04
2022-08-05T10:45:40.541Z,31.24
2022-08-05T10:48:52.646Z,31.33
2022-08-05T10:51:28.765Z,30.93
2022-08-05T10:53:56.021Z,31.22
2022-08-05T10:56:27.765Z,31.14
2022-08-05T10:58:55.542Z,30.88
2022-08-05T11:01:54.513Z,30.75
2022-08-05T11:04:23.398Z,30.38
2022-08-05T11:06:58.972Z,30.54
2022-08-05T11:09:45.451Z,29.70
2022-08-05T11:12:43.066Z,30.01
2022-08-05T11:15:22.746Z,29.85
2022-08-05T11:17:57.289Z,29.56
2022-08-05T11:20:41.770Z,30.42
2022-08-05T11:24:05.750Z,30.07
2022-08-05T11:26:32.487Z,29.97
2022-08-05T11:29:11.979Z,29.95
2022-08-05T11:31:58.293Z,29.22
2022-08-05T11:34:39.138Z,29.62
2022-08-05T11:38:30.244Z,29.61
2022-08-05T11:40:00.741Z,30.02
2022-08-05T11:42:32.901Z,29.63
2022-08-05T11:45:26.760Z,29.51
2022-08-05T11:47:54.807Z,28.78
2022-08-05T11:50:22.497Z,28.89
2022-08-05T11:52:53.134Z,28.44
2022-08-05T11:55:24.023Z,28.38
2022-08-05T11:58:10.145Z,28.27
2022-08-05T12:00:39.136Z,28.25
2022-08-05T12:03:29.461Z,27.91
2022-08-05T12:06:05.902Z,28.30
2022-08-05T12:08:49.859Z,28.44
2022-08-05T12:11:22.385Z,28.26
2022-08-05T12:13:58.661Z,27.80
2022-08-05T12:16:28.837Z,27.67
2022-08-05T12:18:56.011Z,27.75
2022-08-05T12:21:26.781Z,27.44
2022-08-05T12:24:05.069Z,27.79
2022-08-05T12:26:43.826Z,27.78
2022-08-05T12:29:22.812Z,27.94
2022-08-05T12:32:02.185Z,27.21
2022-08-05T12:34:36.770Z,27.05
2022-08-05T12:37:07.789Z,26.91
2022-08-05T12:39:38.578Z,26.11
2022-08-05T12:42:18.937Z,26.41
2022-08-05T12:44:47.654Z,26.05
2022-08-05T12:47:26.437Z,26.04
2022-08-05T12:50:04.720Z,26.23
2022-08-05T12:52:41.914Z,26.14
2022-08-05T12:55:28.393Z,26.12
2022-08-05T12:58:48.633Z,26.20
2022-08-05T13:01:59.786Z,26.54
2022-08-05T13:03:41.776Z,26.92
2022-08-05T13:06:15.999Z,26.50
2022-08-05T13:08:50.776Z,25.37
2022-08-05T13:11:59.940Z,25.17
2022-08-05T13:14:24.951Z,25.09
2022-08-05T13:17:07.404Z,25.56
2022-08-05T13:19:52.433Z,25.20
2022-08-05T13:22:27.728Z,25.14
2022-08-05T13:24:58.051Z,24.73
2022-08-05T13:27:35.700Z,24.32
2022-08-05T13:30:36.065Z,24.14
2022-08-05T13:32:52.871Z,23.31
2022-08-05T13:35:43.297Z,24.04
2022-08-05T13:38:14.535Z,24.48
2022-08-05T13:40:55.304Z,24.34
2022-08-05T13:43:22.416Z,24.82
2022-08-05T13:45:49.100Z,25.22
2022-08-05T13:48:58.742Z,25.09
2022-08-05T13:51:12.882Z,24.63
2022-08-05T13:53:47.992Z,24.84
2022-08-05T13:56:18.950Z,24.89
2022-08-05T13:58:53.044Z,25.13
2022-08-05T14:01:25.941Z,24.92
2022-08-05T14:04:03.573Z,24.87
2022-08-05T14:06:30.743Z,24.81
2022-08-05T14:08:59.562Z,24.46
2022-08-05T14:11:26.377Z,25.14
2022-08-05T14:13:57.990Z,25.06
2022-08-05T14:16:24.645Z,25.29
2022-08-05T14:18:51.414Z,25.09
2022-08-05T14:22:06.714Z,25.47
2022-08-05T14:24:05.163Z,25.21
2022-08-05T14:26:38.285Z,25.35
2022-08-05T14:29:16.628Z,25.38
2022-08-05T14:32:03.060Z,25.19
2022-08-05T14:34:35.002Z,25.84
2022-08-05T14:37:04.212Z,25.86
2022-08-05T14:39:31.854Z,25.89
2022-08-05T14:42:20.892Z,25.27
2022-08-05T14:44:49.029Z,25.95
2022-08-05T14:47:15.541Z,25.94
2022-08-05T14:49:56.454Z,25.68
2022-08-05T14:52:51.896Z,25.26
2022-08-05T14:55:15.595Z,25.65
2022-08-05T14:57:54.397Z,25.25
2022-08-05T15:00:25.245Z,25.43
2022-08-05T15:02:55.481Z,25.45
2022-08-05T15:05:22.624Z,25.34
2022-08-05T15:08:08.535Z,24.67
2022-08-05T15:10:39.979Z,23.76
2022-08-05T15:13:10.243Z,23.34
2022-08-05T15:15:55.842Z,22.44
2022-08-05T15:18:23.181Z,22.63
2022-08-05T15:20:50.061Z,22.62
2022-08-05T15:23:17.733Z,21.18
2022-08-05T15:25:52.971Z,21.01
2022-08-05T15:28:26.951Z,21.34
2022-08-05T15:30:55.386Z,20.79
2022-08-05T15:34:06.195Z,20.88
2022-08-05T15:36:17.357Z,21.43
2022-08-05T15:39:07.605Z,21.48
2022-08-05T15:41:58.045Z,21.49
2022-08-05T15:44:30.432Z,21.05
2022-08-05T15:46:57.521Z,21.01
2022-08-05T15:49:48.126Z,20.86
2022-08-05T15:52:16.596Z,20.93
2022-08-05T15:54:56.572Z,20.45
2022-08-05T15:57:23.490Z,20.83
2022-08-05T15:59:56.676Z,20.50
2022-08-05T16:02:25.635Z,20.40
2022-08-05T16:04:54.334Z,20.47
2022-08-05T16:07:20.992Z,20.57
2022-08-05T16:09:49.760Z,20.74
2022-08-05T16:12:17.353Z,20.96
2022-08-05T16:14:46.665Z,21.02
2022-08-05T16:17:13.941Z,21.17
2022-08-05T16:20:05.130Z,21.29
2022-08-05T16:22:27.685Z,21.96
2022-08-05T16:25:00.779Z,22.18
2022-08-05T16:28:00.116Z,22.60
2022-08-05T16:30:23.111Z,23.05
2022-08-05T16:32:54.312Z,23.57
2022-08-05T16:35:27.957Z,23.60
2022-08-05T16:38:16.429Z,24.23
2022-08-05T16:40:47.788Z,24.70
2022-08-05T16:43:19.487Z,25.07
2022-08-05T16:46:04.153Z,25.75
2022-08-05T16:48:35.351Z,25.81
2022-08-05T16:51:02.378Z,25.84
2022-08-05T16:54:04.147Z,26.63
2022-08-05T16:56:22.581Z,26.31
2022-08-05T16:58:50.241Z,26.67
2022-08-05T17:01:16.954Z,26.67
2022-08-05T17:03:45.680Z,26.61
2022-08-05T17:06:12.381Z,26.99
2022-08-05T17:08:53.265Z,27.13
2022-08-05T17:11:23.336Z,27.21
2022-08-05T17:13:50.339Z,27.44
2022-08-05T17:16:32.460Z,27.15
2022-08-05T17:19:01.462Z,27.62
2022-08-05T17:21:35.826Z,27.65
2022-08-05T17:24:29.195Z,27.78
2022-08-05T17:26:57.281Z,27.74
2022-08-05T17:29:33.410Z,27.85
2022-08-05T17:32:11.183Z,28.22
2022-08-05T17:34:39.029Z,28.08
2022-08-05T17:37:32.129Z,28.30
2022-08-05T17:39:56.042Z,28.10
2022-08-05T17:42:30.038Z,28.26
2022-08-05T17:44:59.905Z,28.61
2022-08-05T17:47:27.044Z,28.96
2022-08-05T17:50:03.958Z,28.95
2022-08-05T17:52:53.437Z,29.15
2022-08-05T17:55:22.719Z,29.18
2022-08-05T17:57:54.119Z,29.70
2022-08-05T18:00:20.704Z,29.79
2022-08-05T18:02:55.078Z,30.28
2022-08-05T18:05:22.003Z,30.16
2022-08-05T18:07:48.758Z,30.73
2022-08-05T18:10:20.946Z,30.61
2022-08-05T18:12:49.320Z,31.13
2022-08-05T18:15:16.234Z,31.64
2022-08-05T18:18:01.655Z,31.68
2022-08-05T18:20:32.018Z,31.87
2022-08-05T18:23:11.299Z,32.45
2022-08-05T18:25:45.479Z,32.46
2022-08-05T18:28:16.535Z,32.93
2022-08-05T18:30:50.980Z,33.19
2022-08-05T18:33:22.946Z,33.42
2022-08-05T18:36:03.670Z,33.42
2022-08-05T18:38:34.486Z,33.38
2022-08-05T18:41:54.250Z,33.73
2022-08-05T18:43:49.393Z,33.80
2022-08-05T18:46:19.933Z,34.03
2022-08-05T18:48:51.932Z,34.17
2022-08-05T18:52:04.714Z,34.95
2022-08-05T18:54:10.310Z,34.42
2022-08-05T18:56:37.088Z,34.59
2022-08-05T18:59:41.781Z,34.86
2022-08-05T19:01:57.261Z,34.98
2022-08-05T19:04:25.572Z,35.39
2022-08-05T19:06:53.507Z,35.13
2022-08-05T19:09:21.190Z,35.28
2022-08-05T19:11:59.526Z,35.15
2022-08-05T19:14:44.513Z,35.45
2022-08-05T19:17:16.628Z,35.54
2022-08-05T19:19:46.931Z,35.94
2022-08-05T19:22:17.023Z,36.04
2022-08-05T19:24:56.049Z,36.18
2022-08-05T19:27:27.750Z,35.93
2022-08-05T19:29:57.636Z,36.19
2022-08-05T19:32:26.263Z,36.26
2022-08-05T19:34:55.666Z,36.64
2022-08-05T19:37:30.096Z,37.09
2022-08-05T19:40:12.758Z,36.69
2022-08-05T19:42:42.087Z,37.08
2022-08-05T19:45:27.778Z,36.93
2022-08-05T19:47:59.798Z,37.56
2022-08-05T19:50:26.547Z,38.65
2022-08-05T19:52:53.066Z,39.89
2022-08-05T19:56:14.994Z,40.90
2022-08-05T19:58:29.248Z,43.73
2022-08-05T20:00:53.129Z,45.30
2022-08-05T20:03:19.874Z,47.10
2022-08-05T20:05:51.098Z,48.85
2022-08-05T20:08:18.335Z,50.77
2022-08-05T20:10:44.930Z,52.93
2022-08-05T20:13:17.795Z,54.61
2022-08-05T20:15:51.475Z,55.65
2022-08-05T20:18:33.681Z,57.87
2022-08-05T20:21:04.822Z,59.24
2022-08-05T20:23:39.780Z,59.93
2022-08-05T20:26:18.716Z,60.84
2022-08-05T20:28:47.196Z,61.92
2022-08-05T20:31:13.888Z,60.39
2022-08-05T20:33:43.827Z,63.55
2022-08-05T20:36:11.467Z,64.35
2022-08-05T20:38:40.830Z,65.11
2022-08-05T20:41:23.883Z,65.42
2022-08-05T20:43:59.509Z,65.37
2022-08-05T20:46:29.428Z,65.83
2022-08-05T20:48:56.034Z,66.28
2022-08-05T20:51:22.610Z,67.10
2022-08-05T20:53:56.509Z,68.16
2022-08-05T20:56:28.863Z,68.48
2022-08-05T20:59:00.065Z,69.06
2022-08-05T21:01:41.464Z,68.57
2022-08-05T21:04:09.993Z,68.70
2022-08-05T21:06:45.659Z,67.55
2022-08-05T21:09:14.773Z,66.78
2022-08-05T21:12:09.067Z,67.02
2022-08-05T21:14:34.720Z,67.88
2022-08-05T21:17:05.087Z,68.39
2022-08-05T21:19:47.042Z,68.99
2022-08-05T21:22:18.620Z,69.37
2022-08-05T21:24:51.712Z,69.72
2022-08-05T21:27:25.498Z,70.26
2022-08-05T21:29:57.968Z,70.68
2022-08-05T21:32:28.853Z,70.75
2022-08-05T21:35:08.824Z,71.16
2022-08-05T21:37:52.646Z,70.80
2022-08-05T21:40:22.419Z,71.00
2022-08-05T21:42:51.893Z,71.24
2022-08-05T21:45:51.496Z,71.03
2022-08-05T21:48:08.254Z,71.36
2022-08-05T21:50:35.059Z,72.21
2022-08-05T21:53:16.603Z,72.70
2022-08-05T21:56:04.755Z,73.05
2022-08-05T21:58:32.202Z,73.19
2022-08-05T22:00:59.432Z,73.41
2022-08-05T22:03:52.323Z,73.22
2022-08-05T22:06:12.658Z,73.65
2022-08-05T22:08:42.598Z,73.53
2022-08-05T22:11:11.511Z,73.43
2022-08-05T22:14:19.510Z,73.26
2022-08-05T22:16:41.693Z,73.42
2022-08-05T22:20:02.662Z,73.42
2022-08-05T22:22:02.969Z,73.48
2022-08-05T22:24:39.750Z,73.07
2022-08-05T22:27:10.784Z,71.59
2022-08-05T22:29:40.581Z,72.49
2022-08-05T22:32:10.000Z,72.42
2022-08-05T22:34:37.010Z,72.72
2022-08-05T22:37:04.825Z,73.52
2022-08-05T22:39:33.878Z,73.80
2022-08-05T22:42:11.511Z,74.25
2022-08-05T22:44:42.689Z,74.35
2022-08-05T22:47:29.771Z,74.28
2022-08-05T22:50:20.000Z,74.39
2022-08-05T22:52:45.185Z,74.55
2022-08-05T22:55:19.513Z,74.39
2022-08-05T22:57:47.201Z,74.67
2022-08-05T23:00:18.227Z,74.88
2022-08-05T23:02:47.958Z,74.93
2022-08-05T23:05:15.995Z,74.75
2022-08-05T23:07:44.979Z,74.77
2022-08-05T23:10:14.994Z,73.70
2022-08-05T23:12:43.919Z,73.42
2022-08-05T23:15:11.898Z,73.76
2022-08-05T23:18:00.997Z,74.08
2022-08-05T23:20:25.464Z,74.34
2022-08-05T23:22:56.130Z,74.79
2022-08-05T23:25:52.816Z,74.49
2022-08-05T23:28:11.946Z,74.98
2022-08-05T23:30:40.464Z,74.61
2022-08-05T23:33:21.970Z,74.07
2022-08-05T23:35:50.839Z,73.79
2022-08-05T23:38:18.049Z,75.06
2022-08-05T23:40:50.258Z,73.99
2022-08-05T23:43:24.965Z,73.79
2022-08-05T23:46:05.023Z,73.88
2022-08-05T23:48:47.311Z,74.24
2022-08-05T23:51:29.063Z,74.34
2022-08-05T23:54:00.996Z,74.17
2022-08-05T23:56:28.002Z,73.89
2022-08-05T23:58:54.724Z,73.84
